Time;durP1;ratioP1;P1;durP2;ratioP2;P2;SDS_P1;SDS_P2;PMS_P1;PMS_P2;Temp;Humidity;BMP_temperature;BMP_pressure;BME280_temperature;BME280_humidity;BME280_pressure;Samples;Min_cycle;Max_cycle;Signal;HPM_P1;HPM_P2
2024/01/17 00:00:33;;;;;;;;;;;;;;;-140.72;0.00;52658.72;5092219;28;20352;-70
2024/01/17 00:02:59;;;;;;;;;;;;;;;-140.72;0.00;52630.31;5090813;28;20060;-70
2024/01/17 00:05:24;;;;;;;;;;;;;;;-140.72;0.00;52666.84;5090389;28;19920;-70
2024/01/17 00:07:49;;;;;;;;;;;;;;;-140.72;0.00;52697.28;5098951;28;19942;-70
2024/01/17 00:10:14;;;;;;;;;;;;;;;-140.72;0.00;52701.31;5088319;28;20636;-69
2024/01/17 00:12:40;;;;;;;;;;;;;;;-140.72;0.00;52664.81;5085707;28;19931;-69
2024/01/17 00:15:05;;;;;;;;;;;;;;;-140.72;0.00;52679.00;5071824;28;20429;-70
2024/01/17 00:17:30;;;;;;;;;;;;;;;-140.72;0.00;52658.72;5087592;28;20298;-69
2024/01/17 00:19:55;;;;;;;;;;;;;;;-140.72;0.00;52662.78;5093267;28;19924;-69
2024/01/17 00:22:21;;;;;;;;;;;;;;;-140.72;0.00;52612.03;5095710;28;20327;-69
2024/01/17 00:24:46;;;;;;;;;;;;;;;-140.72;0.00;52640.44;5104611;28;20019;-69
2024/01/17 00:27:14;;;;;;;;;;;;;;;-140.72;0.00;52632.34;5099416;28;20389;-69
2024/01/17 00:29:40;;;;;;;;;;;;;;;-140.72;0.00;52672.91;5109509;28;19939;-70
2024/01/17 00:32:05;;;;;;;;;;;;;;;-140.72;0.00;52683.06;5085505;28;19920;-71
2024/01/17 00:34:30;;;;;;;;;;;;;;;-140.72;0.00;52662.78;5076554;28;19964;-70
2024/01/17 00:36:56;;;;;;;;;;;;;;;-140.72;0.00;52664.81;5083718;28;19927;-70
2024/01/17 00:39:22;;;;;;;;;;;;;;;-140.72;0.00;52620.16;5094775;28;19916;-70
2024/01/17 00:41:48;;;;;;;;;;;;;;;-140.72;0.00;52658.72;5095396;28;19927;-70
2024/01/17 00:44:16;;;;;;;;;;;;;;;-140.72;0.00;52683.06;5074560;28;20054;-70
2024/01/17 00:46:42;;;;;;;;;;;;;;;-140.72;0.00;52687.13;5080487;28;19924;-70
2024/01/17 00:49:07;;;;;;;;;;;;;;;-140.72;0.00;52679.00;5083985;28;19992;-70
2024/01/17 00:51:32;;;;;;;;;;;;;;;-140.72;0.00;52646.53;5083839;28;20377;-70
2024/01/17 00:53:57;;;;;;;;;;;;;;;-140.72;0.00;52695.25;5088503;28;19916;-70
2024/01/17 00:56:23;;;;;;;;;;;;;;;-140.72;0.00;52679.00;5096534;28;19920;-70
2024/01/17 00:58:48;;;;;;;;;;;;;;;-140.72;0.00;52658.72;5078094;28;19930;-70
2024/01/17 01:01:14;;;;;;;;;;;;;;;-140.72;0.00;52674.94;5087193;28;20025;-70
2024/01/17 01:03:39;;;;;;;;;;;;;;;-140.72;0.00;52664.81;5090137;28;19924;-70
2024/01/17 01:06:05;;;;;;;;;;;;;;;-140.72;0.00;52668.84;5093845;28;20352;-70
2024/01/17 01:08:30;;;;;;;;;;;;;;;-140.72;0.00;52648.56;5097049;28;19916;-70
2024/01/17 01:10:55;;;;;;;;;;;;;;;-140.72;0.00;52646.53;5079400;28;19917;-70
2024/01/17 01:13:21;;;;;;;;;;;;;;;-140.72;0.00;52660.75;5093529;28;20011;-70
2024/01/17 01:15:46;;;;;;;;;;;;;;;-140.72;0.00;52642.47;5113798;28;19968;-70
2024/01/17 01:18:11;;;;;;;;;;;;;;;-140.72;0.00;52664.81;5097914;28;19969;-70
2024/01/17 01:20:36;;;;;;;;;;;;;;;-140.72;0.00;52636.38;5101839;28;20019;-70
2024/01/17 01:23:02;;;;;;;;;;;;;;;-140.72;0.00;52648.56;5096280;28;20361;-70
2024/01/17 01:25:28;;;;;;;;;;;;;;;-140.72;0.00;52640.44;5089078;28;19921;-70
2024/01/17 01:27:53;;;;;;;;;;;;;;;-140.72;0.00;52668.84;5094662;28;19966;-70
2024/01/17 01:30:19;;;;;;;;;;;;;;;-140.72;0.00;52683.06;5074379;28;19923;-70
2024/01/17 01:32:44;;;;;;;;;;;;;;;-140.72;0.00;52662.78;5094537;28;19996;-70
2024/01/17 01:35:09;;;;;;;;;;;;;;;-140.72;0.00;52642.47;5078644;28;19939;-70
2024/01/17 01:37:35;;;;;;;;;;;;;;;-140.72;0.00;52652.63;5099682;28;19990;-70
2024/01/17 01:40:00;;;;;;;;;;;;;;;-140.72;0.00;52687.13;5091518;28;19916;-70
2024/01/17 01:42:25;;;;;;;;;;;;;;;-140.72;0.00;52654.66;5079553;28;19923;-70
2024/01/17 01:44:50;;;;;;;;;;;;;;;-140.72;0.00;52683.06;5081945;28;19916;-70
2024/01/17 01:47:16;;;;;;;;;;;;;;;-140.72;0.00;52711.47;5086936;28;20288;-70
2024/01/17 01:49:42;;;;;;;;;;;;;;;-140.72;0.00;52658.72;5072856;28;19920;-70
2024/01/17 01:52:08;;;;;;;;;;;;;;;-140.72;0.00;52656.69;5084651;28;20392;-70
2024/01/17 01:54:34;;;;;;;;;;;;;;;-140.72;0.00;52636.38;5088896;28;19924;-69
2024/01/17 01:57:00;;;;;;;;;;;;;;;-140.72;0.00;52683.06;5091737;28;19920;-70
2024/01/17 01:59:25;;;;;;;;;;;;;;;-140.72;0.00;52650.59;5092481;28;20320;-70
2024/01/17 02:01:51;;;;;;;;;;;;;;;-140.72;0.00;52662.78;5073601;28;19916;-75
2024/01/17 02:04:17;;;;;;;;;;;;;;;-140.72;0.00;52630.31;5078362;28;19921;-70
2024/01/17 02:06:43;;;;;;;;;;;;;;;-140.72;0.00;52630.31;5093226;28;19917;-70
2024/01/17 02:09:08;;;;;;;;;;;;;;;-140.72;0.00;52676.97;5090345;28;20436;-70
2024/01/17 02:11:34;;;;;;;;;;;;;;;-140.72;0.00;52642.47;5095477;28;19923;-70
2024/01/17 02:13:59;;;;;;;;;;;;;;;-140.72;0.00;52681.03;5078730;28;20390;-70
2024/01/17 02:16:24;;;;;;;;;;;;;;;-140.72;0.00;52652.63;5090853;28;19924;-70
2024/01/17 02:18:50;;;;;;;;;;;;;;;-140.72;0.00;52664.81;5098905;28;19923;-70
2024/01/17 02:21:16;;;;;;;;;;;;;;;-140.72;0.00;52650.59;5078856;28;19920;-70
2024/01/17 02:23:41;;;;;;;;;;;;;;;-140.72;0.00;52670.88;5102485;28;19920;-69
2024/01/17 02:26:06;;;;;;;;;;;;;;;-140.72;0.00;52705.38;5094504;28;20358;-70
2024/01/17 02:28:32;;;;;;;;;;;;;;;-140.72;0.00;52668.84;5097495;28;19920;-70
2024/01/17 02:30:58;;;;;;;;;;;;;;;-140.72;0.00;52670.88;5081346;28;19957;-70
2024/01/17 02:33:23;;;;;;;;;;;;;;;-140.72;0.00;52664.81;5081055;28;20356;-70
2024/01/17 02:35:49;;;;;;;;;;;;;;;-140.72;0.00;52644.50;5082467;28;20015;-70
2024/01/17 02:38:14;;;;;;;;;;;;;;;-140.72;0.00;52691.19;5087458;28;20010;-70
2024/01/17 02:40:39;;;;;;;;;;;;;;;-140.72;0.00;52630.31;5080741;28;19928;-70
2024/01/17 02:43:05;;;;;;;;;;;;;;;-140.72;0.00;52670.88;5082750;28;19924;-69
2024/01/17 02:45:30;;;;;;;;;;;;;;;-140.72;0.00;52662.78;5090562;28;19931;-71
2024/01/17 02:47:55;;;;;;;;;;;;;;;-140.72;0.00;52687.13;5097789;28;19920;-70
2024/01/17 02:50:21;;;;;;;;;;;;;;;-140.72;0.00;52689.16;5073561;28;19928;-70
2024/01/17 02:52:46;;;;;;;;;;;;;;;-140.72;0.00;52666.84;5080572;28;19935;-70
2024/01/17 02:55:12;;;;;;;;;;;;;;;-140.72;0.00;52687.13;5080276;28;20278;-70
2024/01/17 02:57:37;;;;;;;;;;;;;;;-140.72;0.00;52687.13;5082047;28;20231;-70
2024/01/17 03:00:03;;;;;;;;;;;;;;;-140.72;0.00;52630.31;5080370;28;20315;-70
2024/01/17 03:02:28;;;;;;;;;;;;;;;-140.72;0.00;52679.00;5094422;28;19962;-70
2024/01/17 03:04:53;;;;;;;;;;;;;;;-140.72;0.00;52668.84;5091293;28;19955;-70
2024/01/17 03:07:19;;;;;;;;;;;;;;;-140.72;0.00;52654.66;5095153;28;20018;-70
2024/01/17 03:09:44;;;;;;;;;;;;;;;-140.72;0.00;52672.91;5097056;28;19998;-69
2024/01/17 03:12:09;;;;;;;;;;;;;;;-140.72;0.00;52715.53;5087010;28;20009;-69
2024/01/17 03:14:35;;;;;;;;;;;;;;;-140.72;0.00;52666.84;5072257;28;19927;-69
2024/01/17 03:17:01;;;;;;;;;;;;;;;-140.72;0.00;52689.16;5085760;28;20008;-69
2024/01/17 03:19:26;;;;;;;;;;;;;;;-140.72;0.00;52687.13;5089520;28;19993;-70
2024/01/17 03:21:51;;;;;;;;;;;;;;;-140.72;0.00;52652.63;5090440;28;20384;-70
2024/01/17 03:24:17;;;;;;;;;;;;;;;-140.72;0.00;52632.34;5097981;28;19920;-70
2024/01/17 03:26:42;;;;;;;;;;;;;;;-140.72;0.00;52676.97;5081991;28;20011;-70
2024/01/17 03:29:07;;;;;;;;;;;;;;;-140.72;0.00;52689.16;5071258;28;20361;-70
2024/01/17 03:31:32;;;;;;;;;;;;;;;-140.72;0.00;52648.56;5073998;28;19961;-70
2024/01/17 03:33:57;;;;;;;;;;;;;;;-140.72;0.00;52658.72;5088471;28;19916;-70
2024/01/17 03:36:23;;;;;;;;;;;;;;;-140.72;0.00;52666.84;5083705;28;19959;-69
2024/01/17 03:38:48;;;;;;;;;;;;;;;-140.72;0.00;52713.50;5089714;28;20011;-70
2024/01/17 03:41:13;;;;;;;;;;;;;;;-140.72;0.00;52681.03;5085560;28;19955;-70
2024/01/17 03:43:38;;;;;;;;;;;;;;;-140.72;0.00;52656.69;5082202;28;19934;-70
2024/01/17 03:46:03;;;;;;;;;;;;;;;-140.72;0.00;52703.34;5081710;28;19956;-70
2024/01/17 03:48:29;;;;;;;;;;;;;;;-140.72;0.00;52679.00;5070290;28;19920;-70
2024/01/17 03:50:54;;;;;;;;;;;;;;;-140.72;0.00;52656.69;5090326;28;19920;-70
2024/01/17 03:53:19;;;;;;;;;;;;;;;-140.72;0.00;52683.06;5099804;28;19916;-69
2024/01/17 03:55:44;;;;;;;;;;;;;;;-140.72;0.00;52632.34;5088084;28;19932;-70
2024/01/17 03:58:09;;;;;;;;;;;;;;;-140.72;0.00;52630.31;5086698;28;20009;-70
2024/01/17 04:00:35;;;;;;;;;;;;;;;-140.72;0.00;52683.06;5076242;28;20378;-70
2024/01/17 04:03:00;;;;;;;;;;;;;;;-140.72;0.00;52656.69;5101135;28;20388;-70
2024/01/17 04:05:25;;;;;;;;;;;;;;;-140.72;0.00;52679.00;5104636;28;19992;-70
2024/01/17 04:07:50;;;;;;;;;;;;;;;-140.72;0.00;52715.53;5108061;28;19920;-70
2024/01/17 04:10:16;;;;;;;;;;;;;;;-140.72;0.00;52683.06;5089862;28;19924;-70
2024/01/17 04:12:41;;;;;;;;;;;;;;;-140.72;0.00;52662.78;5078702;28;20019;-70
2024/01/17 04:15:06;;;;;;;;;;;;;;;-140.72;0.00;52679.00;5088267;28;19924;-70
2024/01/17 04:17:31;;;;;;;;;;;;;;;-140.72;0.00;52699.31;5097248;28;19990;-69
2024/01/17 04:19:57;;;;;;;;;;;;;;;-140.72;0.00;52703.34;5094216;28;19969;-70
2024/01/17 04:22:22;;;;;;;;;;;;;;;-140.72;0.00;52723.66;5084692;28;19947;-70
2024/01/17 04:24:48;;;;;;;;;;;;;;;-140.72;0.00;52666.84;5087641;28;20377;-70
2024/01/17 04:27:13;;;;;;;;;;;;;;;-140.72;0.00;52695.25;5085862;28;20038;-70
2024/01/17 04:29:38;;;;;;;;;;;;;;;-140.72;0.00;52709.44;5092307;28;20015;-69
2024/01/17 04:32:04;;;;;;;;;;;;;;;-140.72;0.00;52731.75;5088978;28;20319;-70
2024/01/17 04:34:29;;;;;;;;;;;;;;;-140.72;0.00;52691.19;5088151;28;19928;-69
2024/01/17 04:36:54;;;;;;;;;;;;;;;-140.72;0.00;52691.19;5074945;28;19923;-70
2024/01/17 04:39:20;;;;;;;;;;;;;;;-140.72;0.00;52689.16;5076939;28;19916;-69
2024/01/17 04:41:45;;;;;;;;;;;;;;;-140.72;0.00;52668.84;5093528;28;20018;-70
2024/01/17 04:44:11;;;;;;;;;;;;;;;-140.72;0.00;52689.16;5094771;28;19931;-70
2024/01/17 04:46:36;;;;;;;;;;;;;;;-140.72;0.00;52737.84;5096501;28;20352;-70
2024/01/17 04:49:02;;;;;;;;;;;;;;;-140.72;0.00;52713.50;5088024;28;19923;-70
2024/01/17 04:51:27;;;;;;;;;;;;;;;-140.72;0.00;52707.41;5104347;28;19927;-70
2024/01/17 04:53:52;;;;;;;;;;;;;;;-140.72;0.00;52662.78;5076774;28;20031;-70
2024/01/17 04:56:18;;;;;;;;;;;;;;;-140.72;0.00;52672.91;5080926;28;19928;-70
2024/01/17 04:58:46;;;;;;;;;;;;;;;-140.72;0.00;52715.53;5082985;28;19924;-70
2024/01/17 05:01:12;;;;;;;;;;;;;;;-140.72;0.00;52699.31;5082849;28;19967;-70
2024/01/17 05:03:37;;;;;;;;;;;;;;;-140.72;0.00;52721.63;5097814;28;19967;-70
2024/01/17 05:06:02;;;;;;;;;;;;;;;-140.72;0.00;52691.19;5088431;28;20392;-70
2024/01/17 05:08:28;;;;;;;;;;;;;;;-140.72;0.00;52731.75;5062628;28;19962;-70
2024/01/17 05:10:54;;;;;;;;;;;;;;;-140.72;0.00;52697.28;5066884;28;19921;-70
2024/01/17 05:13:19;;;;;;;;;;;;;;;-140.72;0.00;52676.97;5083941;28;19997;-70
2024/01/17 05:15:44;;;;;;;;;;;;;;;-140.72;0.00;52735.81;5085796;28;20370;-70
2024/01/17 05:18:10;;;;;;;;;;;;;;;-140.72;0.00;52743.94;5094711;28;19923;-70
2024/01/17 05:20:35;;;;;;;;;;;;;;;-140.72;0.00;52707.41;5088884;28;19926;-70
2024/01/17 05:23:00;;;;;;;;;;;;;;;-140.72;0.00;52699.31;5094654;28;19928;-69
2024/01/17 05:25:26;;;;;;;;;;;;;;;-140.72;0.00;52679.00;5088056;28;19990;-78
2024/01/17 05:27:54;;;;;;;;;;;;;;;-140.72;0.00;52672.91;5075559;28;19939;-75
2024/01/17 05:30:20;;;;;;;;;;;;;;;-140.72;0.00;52670.88;5094075;28;19920;-71
2024/01/17 05:32:45;;;;;;;;;;;;;;;-140.72;0.00;52674.94;5082316;28;20382;-72
2024/01/17 05:35:10;;;;;;;;;;;;;;;-140.72;0.00;52656.69;5100694;28;20103;-70
2024/01/17 05:37:38;;;;;;;;;;;;;;;-140.72;0.00;52664.81;5094823;28;19928;-70
2024/01/17 05:40:04;;;;;;;;;;;;;;;-140.72;0.00;52652.63;5094993;28;19927;-70
2024/01/17 05:42:30;;;;;;;;;;;;;;;-140.72;0.00;52638.41;5089072;28;19920;-70
2024/01/17 05:44:55;;;;;;;;;;;;;;;-140.72;0.00;52672.91;5087139;28;19927;-70
2024/01/17 05:47:20;;;;;;;;;;;;;;;-140.72;0.00;52693.22;5090341;28;19943;-70
2024/01/17 05:49:46;;;;;;;;;;;;;;;-140.72;0.00;52685.09;5104834;28;20390;-70
2024/01/17 05:52:11;;;;;;;;;;;;;;;-140.72;0.00;52693.22;5086346;28;19962;-72
2024/01/17 05:54:37;;;;;;;;;;;;;;;-140.72;0.00;52711.47;5071015;28;19951;-71
2024/01/17 05:57:02;;;;;;;;;;;;;;;-140.72;0.00;52691.19;5070660;28;19921;-70
2024/01/17 05:59:27;;;;;;;;;;;;;;;-140.72;0.00;52699.31;5075215;28;19916;-71
2024/01/17 06:01:52;;;;;;;;;;;;;;;-140.72;0.00;52687.13;5077824;28;19924;-72
2024/01/17 06:04:18;;;;;;;;;;;;;;;-140.72;0.00;52683.06;5055158;28;20397;-74
2024/01/17 06:06:43;;;;;;;;;;;;;;;-140.72;0.00;52650.59;5058415;28;19923;-70
2024/01/17 06:09:08;;;;;;;;;;;;;;;-140.72;0.00;52707.41;5071002;28;20073;-70
2024/01/17 06:11:33;;;;;;;;;;;;;;;-140.72;0.00;52674.94;5063852;28;19925;-71
2024/01/17 06:13:59;;;;;;;;;;;;;;;-140.72;0.00;52709.44;5070510;28;20016;-70
2024/01/17 06:16:25;;;;;;;;;;;;;;;-140.72;0.00;52662.78;5069031;28;19939;-71
2024/01/17 06:18:50;;;;;;;;;;;;;;;-140.72;0.00;52707.41;5072799;28;19920;-70
2024/01/17 06:21:15;;;;;;;;;;;;;;;-140.72;0.00;52687.13;5065778;28;20033;-71
2024/01/17 06:23:41;;;;;;;;;;;;;;;-140.72;0.00;52693.22;5069269;28;20461;-74
2024/01/17 06:26:07;;;;;;;;;;;;;;;-140.72;0.00;52679.00;5061759;28;19917;-70
2024/01/17 06:28:34;;;;;;;;;;;;;;;-140.72;0.00;52705.38;5069519;28;20011;-70
2024/01/17 06:31:00;;;;;;;;;;;;;;;-140.72;0.00;52691.19;5073934;28;20019;-70
2024/01/17 06:33:25;;;;;;;;;;;;;;;-140.72;0.00;52652.63;5077705;28;19971;-70
2024/01/17 06:35:50;;;;;;;;;;;;;;;-140.72;0.00;52737.84;5071227;28;19920;-70
2024/01/17 06:38:15;;;;;;;;;;;;;;;-140.72;0.00;52685.09;5059026;28;20321;-70
2024/01/17 06:40:41;;;;;;;;;;;;;;;-140.72;0.00;52752.06;5068088;28;19928;-70
2024/01/17 06:43:06;;;;;;;;;;;;;;;-140.72;0.00;52707.41;5060495;28;20016;-70
2024/01/17 06:45:31;;;;;;;;;;;;;;;-140.72;0.00;52691.19;5063984;28;20019;-70
2024/01/17 06:47:58;;;;;;;;;;;;;;;-140.72;0.00;52691.19;5062407;28;19956;-70
2024/01/17 06:50:24;;;;;;;;;;;;;;;-140.72;0.00;52638.41;5066048;28;19950;-70
2024/01/17 06:52:49;;;;;;;;;;;;;;;-140.72;0.00;52707.41;5067204;28;20012;-70
2024/01/17 06:55:15;;;;;;;;;;;;;;;-140.72;0.00;52666.84;5073425;28;19964;-70
2024/01/17 06:57:40;;;;;;;;;;;;;;;-140.72;0.00;52709.44;5108218;28;19920;-70
2024/01/17 07:00:06;;;;;;;;;;;;;;;-140.72;0.00;52685.09;5094320;28;19981;-72
2024/01/17 07:02:31;;;;;;;;;;;;;;;-140.72;0.00;52689.16;5088966;28;20022;-73
2024/01/17 07:04:58;;;;;;;;;;;;;;;-140.72;0.00;52668.84;5088998;28;19916;-72
2024/01/17 07:07:23;;;;;;;;;;;;;;;-140.72;0.00;52697.28;5092483;28;19923;-70
2024/01/17 07:09:48;;;;;;;;;;;;;;;-140.72;0.00;52683.06;5089514;28;19989;-70
2024/01/17 07:12:14;;;;;;;;;;;;;;;-140.72;0.00;52731.75;5085394;28;19916;-71
2024/01/17 07:14:39;;;;;;;;;;;;;;;-140.72;0.00;52729.75;5086916;28;19926;-70
2024/01/17 07:17:06;;;;;;;;;;;;;;;-140.72;0.00;52731.75;5083348;28;19986;-70
2024/01/17 07:19:34;;;;;;;;;;;;;;;-140.72;0.00;52693.22;5085795;28;19916;-70
2024/01/17 07:21:59;;;;;;;;;;;;;;;-140.72;0.00;52676.97;5087781;28;20362;-70
2024/01/17 07:24:25;;;;;;;;;;;;;;;-140.72;0.00;52662.78;5090353;28;20005;-73
2024/01/17 07:26:50;;;;;;;;;;;;;;;-140.72;0.00;52703.34;5077827;28;19920;-72
2024/01/17 07:29:15;;;;;;;;;;;;;;;-140.72;0.00;52735.81;5104849;28;19926;-70
2024/01/17 07:31:40;;;;;;;;;;;;;;;-140.72;0.00;52662.78;5106045;28;19921;-70
2024/01/17 07:34:06;;;;;;;;;;;;;;;-140.72;0.00;52693.22;5080037;28;20366;-70
2024/01/17 07:36:31;;;;;;;;;;;;;;;-140.72;0.00;52699.31;5054675;28;19917;-70
2024/01/17 07:38:56;;;;;;;;;;;;;;;-140.72;0.00;52652.63;5076886;28;19920;-70
2024/01/17 07:41:21;;;;;;;;;;;;;;;-140.72;0.00;52668.84;5063320;28;19920;-70
2024/01/17 07:43:46;;;;;;;;;;;;;;;-140.72;0.00;52658.72;5071472;28;19924;-70
2024/01/17 07:46:12;;;;;;;;;;;;;;;-140.72;0.00;52666.84;5078230;28;20328;-70
2024/01/17 07:48:38;;;;;;;;;;;;;;;-140.72;0.00;52646.53;5091236;28;19974;-70
2024/01/17 07:51:03;;;;;;;;;;;;;;;-140.72;0.00;52670.88;5085901;28;20015;-70
2024/01/17 07:53:28;;;;;;;;;;;;;;;-140.72;0.00;52656.69;5092089;28;19999;-73
2024/01/17 07:55:54;;;;;;;;;;;;;;;-140.72;0.00;52650.59;5086420;28;19973;-70
2024/01/17 07:58:19;;;;;;;;;;;;;;;-140.72;0.00;52670.88;5085731;28;19942;-70
2024/01/17 08:00:45;;;;;;;;;;;;;;;-140.72;0.00;52652.63;5089471;28;19924;-70
2024/01/17 08:03:10;;;;;;;;;;;;;;;-140.72;0.00;52670.88;5091119;28;20010;-70
2024/01/17 08:05:35;;;;;;;;;;;;;;;-140.72;0.00;52660.75;5083314;28;19917;-70
2024/01/17 08:08:00;;;;;;;;;;;;;;;-140.72;0.00;52707.41;5082218;28;19923;-70
2024/01/17 08:10:36;;;;;;;;;;;;;;;-140.72;0.00;52656.69;5082839;28;19920;-70
2024/01/17 08:13:10;;;;;;;;;;;;;;;-140.72;0.00;52672.91;5093420;28;19916;-70
2024/01/17 08:15:36;;;;;;;;;;;;;;;-140.72;0.00;52668.84;5091463;28;20022;-70
2024/01/17 08:18:01;;;;;;;;;;;;;;;-140.72;0.00;52571.47;5091487;28;20421;-70
2024/01/17 08:20:26;;;;;;;;;;;;;;;-140.72;0.00;52662.78;5086660;28;19924;-70
2024/01/17 08:22:52;;;;;;;;;;;;;;;-140.72;0.00;52662.78;5098437;28;19928;-70
2024/01/17 08:25:17;;;;;;;;;;;;;;;-140.72;0.00;52589.72;5088609;28;20362;-70
2024/01/17 08:27:42;;;;;;;;;;;;;;;-140.72;0.00;52585.66;5098859;28;19953;-71
2024/01/17 08:30:09;;;;;;;;;;;;;;;-140.72;0.00;52624.22;5100906;28;19926;-73
2024/01/17 08:32:35;;;;;;;;;;;;;;;-140.72;0.00;52587.69;5065890;28;19928;-71
2024/01/17 08:35:00;;;;;;;;;;;;;;;-140.72;0.00;52630.31;5089137;28;19920;-70
2024/01/17 08:37:25;;;;;;;;;;;;;;;-140.72;0.00;52676.97;5088226;28;20036;-70
2024/01/17 08:39:51;;;;;;;;;;;;;;;-140.72;0.00;52697.28;5085183;28;19916;-70
2024/01/17 08:42:16;;;;;;;;;;;;;;;-140.72;0.00;52685.09;5101171;28;20014;-71
2024/01/17 08:44:42;;;;;;;;;;;;;;;-140.72;0.00;52650.59;5085954;28;20401;-70
2024/01/17 08:47:08;;;;;;;;;;;;;;;-140.72;0.00;52642.47;5081611;28;19955;-70
2024/01/17 08:49:33;;;;;;;;;;;;;;;-140.72;0.00;52664.81;5092663;28;20004;-70
2024/01/17 08:51:59;;;;;;;;;;;;;;;-140.72;0.00;52654.66;5093597;28;19981;-70
2024/01/17 08:54:25;;;;;;;;;;;;;;;-140.72;0.00;52683.06;5079627;28;19920;-70
2024/01/17 08:56:50;;;;;;;;;;;;;;;-140.72;0.00;52658.72;5083027;28;20304;-71
2024/01/17 08:59:16;;;;;;;;;;;;;;;-140.72;0.00;52713.50;5063084;28;19928;-70
2024/01/17 09:01:41;;;;;;;;;;;;;;;-140.72;0.00;52656.69;5099821;28;19977;-70
2024/01/17 09:04:06;;;;;;;;;;;;;;;-140.72;0.00;52660.75;5102955;28;19993;-70
2024/01/17 09:06:31;;;;;;;;;;;;;;;-140.72;0.00;52644.50;5102949;28;19973;-70
2024/01/17 09:08:56;;;;;;;;;;;;;;;-140.72;0.00;52571.47;5097928;28;19942;-70
2024/01/17 09:11:22;;;;;;;;;;;;;;;-140.72;0.00;52612.03;5102062;28;19935;-70
2024/01/17 09:13:48;;;;;;;;;;;;;;;-140.72;0.00;52634.38;5107851;28;20022;-70
2024/01/17 09:16:13;;;;;;;;;;;;;;;-140.72;0.00;52632.34;5092716;28;20490;-70
2024/01/17 09:18:38;;;;;;;;;;;;;;;-140.72;0.00;52636.38;5087550;28;20101;-70
2024/01/17 09:21:04;;;;;;;;;;;;;;;-140.72;0.00;52620.16;5086532;28;20295;-70
2024/01/17 09:23:29;;;;;;;;;;;;;;;-140.72;0.00;52630.31;5085027;28;19947;-70
2024/01/17 09:25:54;;;;;;;;;;;;;;;-140.72;0.00;52638.41;5099952;28;20289;-69
2024/01/17 09:28:19;;;;;;;;;;;;;;;-140.72;0.00;52634.38;5099721;28;19924;-71
2024/01/17 09:30:45;;;;;;;;;;;;;;;-140.72;0.00;52630.31;5087607;28;19927;-72
2024/01/17 09:33:10;;;;;;;;;;;;;;;-140.72;0.00;52618.13;5081953;28;19921;-71
2024/01/17 09:35:36;;;;;;;;;;;;;;;-140.72;0.00;52656.69;5081477;28;19939;-71
2024/01/17 09:38:02;;;;;;;;;;;;;;;-140.72;0.00;52683.06;5085137;28;19981;-71
2024/01/17 09:40:28;;;;;;;;;;;;;;;-140.72;0.00;52681.03;5074641;28;19924;-69
2024/01/17 09:42:53;;;;;;;;;;;;;;;-140.72;0.00;52636.38;5106389;28;20032;-69
2024/01/17 09:45:20;;;;;;;;;;;;;;;-140.72;0.00;52656.69;5094974;28;19920;-69
2024/01/17 09:47:48;;;;;;;;;;;;;;;-140.72;0.00;52695.25;5088713;28;19936;-69
2024/01/17 09:50:13;;;;;;;;;;;;;;;-140.72;0.00;52662.78;5087741;28;19977;-69
2024/01/17 09:52:39;;;;;;;;;;;;;;;-140.72;0.00;52656.69;5078809;28;20953;-69
2024/01/17 09:55:05;;;;;;;;;;;;;;;-140.72;0.00;52622.19;5083549;28;20254;-68
2024/01/17 09:57:34;;;;;;;;;;;;;;;-140.72;0.00;52683.06;5087817;28;19917;-69
2024/01/17 10:00:06;;;;;;;;;;;;;;;-140.72;0.00;52681.03;5083763;28;20011;-71
2024/01/17 10:02:31;;;;;;;;;;;;;;;-140.72;0.00;52612.03;5069067;28;19955;-70
2024/01/17 10:04:58;;;;;;;;;;;;;;;-140.72;0.00;52634.38;5093344;28;19959;-70
2024/01/17 10:07:23;;;;;;;;;;;;;;;-140.72;0.00;52610.00;5089541;28;20334;-70
2024/01/17 10:09:48;;;;;;;;;;;;;;;-140.72;0.00;52614.06;5091012;28;20000;-70
2024/01/17 10:12:16;;;;;;;;;;;;;;;-140.72;0.00;52658.72;5092560;28;19951;-70
2024/01/17 10:14:42;;;;;;;;;;;;;;;-140.72;0.00;52626.25;5088911;28;19966;-70
2024/01/17 10:17:07;;;;;;;;;;;;;;;-140.72;0.00;52630.31;5078138;28;19920;-70
2024/01/17 10:19:33;;;;;;;;;;;;;;;-140.72;0.00;52561.31;5084498;28;20374;-73
2024/01/17 10:22:02;;;;;;;;;;;;;;;-140.72;0.00;52595.81;5082016;28;20403;-70
2024/01/17 10:24:28;;;;;;;;;;;;;;;-140.72;0.00;52565.38;5062739;28;20077;-69
2024/01/17 10:26:54;;;;;;;;;;;;;;;-140.72;0.00;52605.94;5079539;28;20065;-69
2024/01/17 10:29:19;;;;;;;;;;;;;;;-140.72;0.00;52628.28;5070725;28;19950;-69
2024/01/17 10:31:44;;;;;;;;;;;;;;;-140.72;0.00;52630.31;5085766;28;20020;-70
2024/01/17 10:34:10;;;;;;;;;;;;;;;-140.72;0.00;52654.66;5087586;28;19921;-69
2024/01/17 10:36:39;;;;;;;;;;;;;;;-140.72;0.00;52555.22;5086733;28;20663;-71
2024/01/17 10:39:04;;;;;;;;;;;;;;;-140.72;0.00;52630.31;5080461;28;19931;-72
2024/01/17 10:41:31;;;;;;;;;;;;;;;-140.72;0.00;52587.69;5083860;28;19974;-69
2024/01/17 10:43:57;;;;;;;;;;;;;;;-140.72;0.00;52624.22;5080023;28;19926;-77
2024/01/17 10:46:23;;;;;;;;;;;;;;;-140.72;0.00;52618.13;5094672;28;20829;-71
2024/01/17 10:48:48;;;;;;;;;;;;;;;-140.72;0.00;52618.13;5074661;28;20374;-71
2024/01/17 10:51:23;;;;;;;;;;;;;;;-140.72;0.00;52610.00;5093208;28;19920;-69
2024/01/17 10:53:57;;;;;;;;;;;;;;;-140.72;0.00;52624.22;5093295;28;19920;-77
2024/01/17 10:56:25;;;;;;;;;;;;;;;-140.72;0.00;52559.28;5093926;28;19974;-72
2024/01/17 10:58:53;;;;;;;;;;;;;;;-140.72;0.00;52541.03;5091831;28;19935;-70
2024/01/17 11:01:31;;;;;;;;;;;;;;;-140.72;0.00;52549.13;5090962;28;19920;-71
2024/01/17 11:04:02;;;;;;;;;;;;;;;-140.72;0.00;52571.47;5067902;28;19935;-71
2024/01/17 11:06:27;;;;;;;;;;;;;;;-140.72;0.00;52573.50;5063491;28;19928;-69
2024/01/17 11:08:53;;;;;;;;;;;;;;;-140.72;0.00;52573.50;5079826;28;19927;-72
2024/01/17 11:11:19;;;;;;;;;;;;;;;-140.72;0.00;52569.44;5065740;28;19968;-69
2024/01/17 11:13:46;;;;;;;;;;;;;;;-140.72;0.00;52551.16;5075605;28;19923;-69
2024/01/17 11:16:13;;;;;;;;;;;;;;;-140.72;0.00;52577.53;5084898;28;19917;-69
2024/01/17 11:18:40;;;;;;;;;;;;;;;-140.72;0.00;52581.59;5078284;28;19916;-69
2024/01/17 11:21:07;;;;;;;;;;;;;;;-140.72;0.00;52567.41;5087486;28;20365;-70
2024/01/17 11:23:39;;;;;;;;;;;;;;;-140.72;0.00;52565.38;5093231;28;20033;-69
2024/01/17 11:26:04;;;;;;;;;;;;;;;-140.72;0.00;52595.81;5078789;28;19939;-69
2024/01/17 11:28:40;;;;;;;;;;;;;;;-140.72;0.00;52547.09;5096367;28;19928;-69
2024/01/17 11:31:17;;;;;;;;;;;;;;;-140.72;0.00;52565.38;5093482;28;19967;-69
2024/01/17 11:33:43;;;;;;;;;;;;;;;-140.72;0.00;52555.22;5094972;28;19927;-69
2024/01/17 11:36:28;;;;;;;;;;;;;;;-140.72;0.00;52603.94;5090039;28;19925;-69
2024/01/17 11:38:54;;;;;;;;;;;;;;;-140.72;0.00;52577.53;5106434;28;20035;-73
2024/01/17 11:41:20;;;;;;;;;;;;;;;-140.72;0.00;52561.31;5087360;28;20437;-70
2024/01/17 11:43:46;;;;;;;;;;;;;;;-140.72;0.00;52561.31;5096899;28;20357;-71
2024/01/17 11:46:11;;;;;;;;;;;;;;;-140.72;0.00;52536.97;5099889;28;19998;-69
2024/01/17 11:48:38;;;;;;;;;;;;;;;-140.72;0.00;52569.44;5099159;28;19920;-69
2024/01/17 11:51:14;;;;;;;;;;;;;;;-140.72;0.00;52577.53;5100779;28;19927;-69
2024/01/17 11:53:50;;;;;;;;;;;;;;;-140.72;0.00;52553.19;5093894;28;20437;-72
2024/01/17 11:56:17;;;;;;;;;;;;;;;-140.72;0.00;52545.06;5099167;28;19951;-70
2024/01/17 11:58:43;;;;;;;;;;;;;;;-140.72;0.00;52528.84;5101156;28;19981;-71
2024/01/17 12:01:12;;;;;;;;;;;;;;;-140.72;0.00;52534.94;5097548;28;19972;-70
2024/01/17 12:03:38;;;;;;;;;;;;;;;-140.72;0.00;52563.34;5094321;28;19927;-72
2024/01/17 12:06:03;;;;;;;;;;;;;;;-140.72;0.00;52567.41;5089438;28;20293;-69
2024/01/17 12:08:29;;;;;;;;;;;;;;;-140.72;0.00;52569.44;5088227;28;19924;-71
2024/01/17 12:10:54;;;;;;;;;;;;;;;-140.72;0.00;52569.44;5092011;28;19938;-70
2024/01/17 12:13:21;;;;;;;;;;;;;;;-140.72;0.00;52587.69;5088895;28;19927;-70
2024/01/17 12:15:48;;;;;;;;;;;;;;;-140.72;0.00;52536.97;5096722;28;19951;-69
2024/01/17 12:18:17;;;;;;;;;;;;;;;-140.72;0.00;52583.63;5092378;28;19982;-69
2024/01/17 12:20:43;;;;;;;;;;;;;;;-140.72;0.00;52573.50;5095789;28;20429;-69
2024/01/17 12:23:08;;;;;;;;;;;;;;;-140.72;0.00;52573.50;5091088;28;20065;-71
2024/01/17 12:25:34;;;;;;;;;;;;;;;-140.72;0.00;52571.47;5101343;28;20365;-74
2024/01/17 12:28:02;;;;;;;;;;;;;;;-140.72;0.00;52553.19;5093609;28;19920;-73